Time;durP1;ratioP1;P1;durP2;ratioP2;P2;SDS_P1;SDS_P2;PMS_P1;PMS_P2;Temp;Humidity;BMP_temperature;BMP_pressure;BME280_temperature;BME280_humidity;BME280_pressure;Samples;Min_cycle;Max_cycle;Signal;HPM_P1;HPM_P2
2023/10/25 00:02:03;;;;;;;19.83;10.20;;;10.00;99.90;;;;;;5072846;28;20047;-85
2023/10/25 00:04:28;;;;;;;17.95;9.68;;;10.00;99.90;;;;;;5073855;28;20487;-85
2023/10/25 00:06:54;;;;;;;20.42;10.30;;;10.00;99.90;;;;;;5072653;28;20041;-85
2023/10/25 00:09:20;;;;;;;21.90;10.50;;;10.00;99.90;;;;;;5072909;28;20048;-85
2023/10/25 00:11:48;;;;;;;20.20;10.45;;;10.00;99.90;;;;;;5073087;28;20056;-86
2023/10/25 00:14:14;;;;;;;18.15;9.00;;;9.90;99.90;;;;;;5073051;28;20047;-84
2023/10/25 00:16:39;;;;;;;20.55;9.63;;;10.00;99.90;;;;;;5072876;28;20040;-84
2023/10/25 00:19:05;;;;;;;18.02;9.52;;;9.90;99.90;;;;;;5072534;28;20381;-84
2023/10/25 00:21:31;;;;;;;17.20;8.50;;;9.90;99.90;;;;;;5072866;28;20047;-85
2023/10/25 00:23:56;;;;;;;18.85;9.23;;;9.90;99.90;;;;;;5072579;28;20086;-85
2023/10/25 00:26:22;;;;;;;20.48;9.13;;;9.90;99.90;;;;;;5072530;28;20542;-84
2023/10/25 00:28:47;;;;;;;23.95;8.65;;;9.90;99.90;;;;;;5072728;28;20047;-86
2023/10/25 00:31:13;;;;;;;20.80;9.02;;;9.90;99.90;;;;;;5072327;28;20471;-87
2023/10/25 00:33:39;;;;;;;20.13;8.77;;;9.90;99.90;;;;;;5072736;28;20040;-85
2023/10/25 00:36:05;;;;;;;15.43;8.40;;;9.90;99.90;;;;;;5072295;28;20369;-86
2023/10/25 00:38:30;;;;;;;20.27;9.10;;;9.90;99.90;;;;;;5073193;28;20170;-86
2023/10/25 00:40:56;;;;;;;20.52;8.57;;;9.90;99.90;;;;;;5072484;28;20123;-85
2023/10/25 00:43:23;;;;;;;18.40;8.30;;;9.90;99.90;;;;;;5072659;28;20048;-85
2023/10/25 00:46:11;;;;;;;15.68;7.88;;;9.90;99.90;;;;;;5106172;28;20083;-85
2023/10/25 00:48:40;;;;;;;13.73;7.53;;;9.90;99.90;;;;;;5106307;28;20047;-85
2023/10/25 00:51:08;;;;;;;14.45;7.50;;;9.90;99.90;;;;;;5072592;28;20047;-86
2023/10/25 00:53:56;;;;;;;16.38;7.18;;;9.80;99.90;;;;;;5072176;28;20053;-84
2023/10/25 00:56:25;;;;;;;13.82;6.68;;;9.80;99.90;;;;;;5071784;28;20143;-84
2023/10/25 00:58:56;;;;;;;12.38;6.78;;;9.90;99.90;;;;;;5072365;28;20041;-86
2023/10/25 01:01:27;;;;;;;13.95;6.78;;;9.90;99.90;;;;;;5072360;28;20055;-85
2023/10/25 01:03:54;;;;;;;18.13;7.75;;;9.80;99.90;;;;;;5106030;28;20060;-84
2023/10/25 01:06:20;;;;;;;18.63;6.70;;;9.80;99.90;;;;;;5105876;28;20095;-85
2023/10/25 01:08:46;;;;;;;18.73;7.35;;;9.80;99.90;;;;;;5072274;28;20099;-85
2023/10/25 01:11:12;;;;;;;15.95;6.10;;;9.70;99.90;;;;;;5105763;28;20557;-84
2023/10/25 01:13:38;;;;;;;13.60;5.82;;;9.80;99.90;;;;;;5072027;28;20090;-84
2023/10/25 01:16:04;;;;;;;12.73;5.65;;;9.80;99.90;;;;;;5072075;28;20127;-84
2023/10/25 01:18:31;;;;;;;14.05;6.45;;;9.70;99.90;;;;;;5072153;28;20168;-84
2023/10/25 01:20:56;;;;;;;12.10;6.10;;;9.70;99.90;;;;;;5105870;28;20045;-84
2023/10/25 01:23:22;;;;;;;13.80;5.10;;;9.70;99.90;;;;;;5072113;28;20052;-84
2023/10/25 01:25:48;;;;;;;14.07;5.40;;;9.70;99.90;;;;;;5090649;28;20369;-85
2023/10/25 01:28:14;;;;;;;10.98;5.47;;;9.70;99.90;;;;;;5072168;28;20049;-85
2023/10/25 01:30:42;;;;;;;12.55;5.25;;;9.70;99.90;;;;;;5071869;28;20045;-84
2023/10/25 01:33:08;;;;;;;9.95;5.25;;;9.70;99.90;;;;;;5071875;28;20052;-84
2023/10/25 01:35:35;;;;;;;13.68;4.57;;;9.70;99.90;;;;;;5071839;28;20037;-85
2023/10/25 01:38:01;;;;;;;11.93;5.20;;;9.70;99.90;;;;;;5073297;28;20139;-85
2023/10/25 01:40:27;;;;;;;12.48;4.97;;;9.70;99.90;;;;;;5071776;28;20052;-85
2023/10/25 01:42:54;;;;;;;10.40;5.30;;;9.70;99.90;;;;;;5072074;28;20047;-84
2023/10/25 01:45:23;;;;;;;11.02;5.13;;;9.60;99.90;;;;;;5071943;28;20479;-84
2023/10/25 01:47:49;;;;;;;10.45;4.88;;;9.60;99.90;;;;;;5071475;28;20560;-85
2023/10/25 01:50:15;;;;;;;14.65;6.25;;;9.60;99.90;;;;;;5072128;28;20094;-84
2023/10/25 01:52:41;;;;;;;12.90;6.13;;;9.60;99.90;;;;;;5071292;28;20110;-84
2023/10/25 01:55:07;;;;;;;15.48;6.55;;;9.50;99.90;;;;;;5054896;28;20040;-85
2023/10/25 01:57:32;;;;;;;13.00;6.35;;;9.50;99.90;;;;;;5071978;28;20088;-84
2023/10/25 01:59:58;;;;;;;13.65;6.70;;;9.50;99.90;;;;;;5071574;28;20076;-86
2023/10/25 02:02:24;;;;;;;15.40;6.13;;;9.40;99.90;;;;;;5071912;28;20051;-85
2023/10/25 02:04:49;;;;;;;17.17;7.35;;;9.40;99.90;;;;;;5074037;28;20040;-85
2023/10/25 02:07:15;;;;;;;15.38;6.78;;;9.40;99.90;;;;;;5074939;28;20525;-85
2023/10/25 02:09:41;;;;;;;14.15;6.72;;;9.40;99.90;;;;;;5075098;28;20545;-84
2023/10/25 02:12:07;;;;;;;14.18;6.40;;;9.40;99.90;;;;;;5075055;28;20044;-85
2023/10/25 02:14:32;;;;;;;14.15;6.43;;;9.30;99.90;;;;;;5075312;28;20040;-85
2023/10/25 02:16:58;;;;;;;14.73;6.95;;;9.30;99.90;;;;;;5075318;28;20102;-84
2023/10/25 02:19:24;;;;;;;16.02;6.82;;;9.30;99.90;;;;;;5074766;28;20037;-85
2023/10/25 02:21:49;;;;;;;14.32;7.32;;;9.30;99.90;;;;;;5075100;28;20048;-85
2023/10/25 02:24:15;;;;;;;12.95;6.90;;;9.30;99.90;;;;;;5074994;28;20650;-84
2023/10/25 02:26:42;;;;;;;15.68;7.35;;;9.30;99.90;;;;;;5074873;28;20055;-84
2023/10/25 02:29:08;;;;;;;16.17;7.20;;;9.30;99.90;;;;;;5075194;28;20041;-83
2023/10/25 02:31:34;;;;;;;14.63;7.03;;;9.30;99.90;;;;;;5057967;28;20048;-81
2023/10/25 02:33:59;;;;;;;15.77;7.68;;;9.30;99.90;;;;;;5074796;28;20041;-84
2023/10/25 02:36:25;;;;;;;16.90;7.57;;;9.30;99.90;;;;;;5074833;28;20041;-84
2023/10/25 02:38:51;;;;;;;14.63;7.13;;;9.30;99.90;;;;;;5074834;28;20383;-84
2023/10/25 02:41:16;;;;;;;14.57;7.03;;;9.30;99.90;;;;;;5074801;28;20400;-84
2023/10/25 02:43:43;;;;;;;14.10;7.13;;;9.30;99.90;;;;;;5074523;28;20044;-84
2023/10/25 02:46:12;;;;;;;17.63;7.97;;;9.30;99.90;;;;;;5074450;28;20044;-84
2023/10/25 02:48:41;;;;;;;14.35;6.78;;;9.30;99.90;;;;;;5074651;28;20098;-84
2023/10/25 02:51:07;;;;;;;16.30;7.03;;;9.30;99.90;;;;;;5057523;28;20076;-84
2023/10/25 02:53:33;;;;;;;17.92;7.03;;;9.30;99.90;;;;;;5074126;28;20084;-84
2023/10/25 02:56:03;;;;;;;17.08;7.32;;;9.30;99.90;;;;;;5074308;28;20045;-84
2023/10/25 02:58:30;;;;;;;18.33;7.70;;;9.30;99.90;;;;;;5074534;28;20048;-84
2023/10/25 03:00:58;;;;;;;15.27;7.85;;;9.30;99.90;;;;;;5074363;28;20400;-84
2023/10/25 03:03:27;;;;;;;16.02;8.90;;;9.30;99.90;;;;;;5074317;28;20041;-84
2023/10/25 03:05:53;;;;;;;16.50;8.85;;;9.30;99.90;;;;;;5074259;28;20033;-84
2023/10/25 03:08:19;;;;;;;17.10;8.88;;;9.30;99.90;;;;;;5074035;28;20377;-84
2023/10/25 03:10:45;;;;;;;17.40;8.20;;;9.30;99.90;;;;;;5074053;28;20041;-85
2023/10/25 03:13:11;;;;;;;21.77;9.80;;;9.30;99.90;;;;;;5073979;28;20041;-85
2023/10/25 03:15:36;;;;;;;18.30;8.98;;;9.40;99.90;;;;;;5072636;28;20150;-84
2023/10/25 03:18:02;;;;;;;18.60;9.85;;;9.40;99.90;;;;;;5073658;28;20044;-83
2023/10/25 03:20:28;;;;;;;20.80;9.00;;;9.30;99.90;;;;;;5073774;28;20051;-84
2023/10/25 03:22:55;;;;;;;17.77;10.02;;;9.30;99.90;;;;;;5073688;28;20044;-84
2023/10/25 03:25:20;;;;;;;18.38;9.95;;;9.30;99.90;;;;;;5074027;28;20040;-83
2023/10/25 03:27:48;;;;;;;19.95;9.88;;;9.30;99.90;;;;;;5073621;28;20480;-84
2023/10/25 03:30:14;;;;;;;27.73;10.50;;;9.30;99.90;;;;;;5073653;28;20040;-83
2023/10/25 03:32:39;;;;;;;18.80;9.98;;;9.30;99.90;;;;;;5073727;28;20041;-84
2023/10/25 03:35:06;;;;;;;24.60;11.63;;;9.30;99.90;;;;;;5073470;28;20068;-84
2023/10/25 03:37:32;;;;;;;21.92;10.77;;;9.30;99.90;;;;;;5073754;28;20045;-84
2023/10/25 03:39:57;;;;;;;19.63;10.02;;;9.30;99.90;;;;;;5073470;28;20048;-85
2023/10/25 03:42:23;;;;;;;22.25;10.88;;;9.30;99.90;;;;;;5073668;28;20033;-84
2023/10/25 03:44:49;;;;;;;21.70;10.65;;;9.20;99.90;;;;;;5073615;28;20468;-84
2023/10/25 03:47:14;;;;;;;19.10;9.93;;;9.20;99.90;;;;;;5073400;28;20407;-85
2023/10/25 03:49:40;;;;;;;20.38;10.57;;;9.20;99.90;;;;;;5073220;28;20086;-85
2023/10/25 03:52:05;;;;;;;20.60;10.52;;;9.20;99.90;;;;;;5072774;28;20048;-84
2023/10/25 03:54:31;;;;;;;21.52;10.63;;;9.10;99.90;;;;;;5073202;28;20048;-84
2023/10/25 03:56:57;;;;;;;23.58;11.27;;;9.20;99.90;;;;;;5073222;28;20105;-84
2023/10/25 03:59:22;;;;;;;21.45;9.90;;;9.20;99.90;;;;;;5072658;28;20101;-85
2023/10/25 04:01:48;;;;;;;23.95;11.80;;;9.10;99.90;;;;;;5073091;28;20040;-84
2023/10/25 04:04:13;;;;;;;22.58;10.30;;;9.10;99.90;;;;;;5074186;28;20454;-84
2023/10/25 04:06:39;;;;;;;27.70;12.60;;;9.10;99.90;;;;;;5073010;28;20496;-84
2023/10/25 04:09:05;;;;;;;19.55;11.07;;;9.10;99.90;;;;;;5072735;28;20460;-84
2023/10/25 04:11:31;;;;;;;23.27;11.43;;;9.10;99.90;;;;;;5072868;28;20052;-84
2023/10/25 04:13:57;;;;;;;22.27;12.02;;;9.00;99.90;;;;;;5072828;28;20075;-84
2023/10/25 04:16:23;;;;;;;23.42;11.00;;;9.00;99.90;;;;;;5072902;28;20072;-85
2023/10/25 04:18:48;;;;;;;26.10;12.60;;;9.00;99.90;;;;;;5072473;28;20041;-84
2023/10/25 04:21:14;;;;;;;20.33;11.77;;;8.90;99.90;;;;;;5072634;28;20044;-85
2023/10/25 04:23:40;;;;;;;21.25;11.88;;;8.90;99.90;;;;;;5072738;28;20128;-84
2023/10/25 04:26:07;;;;;;;24.35;12.50;;;8.80;99.90;;;;;;5072365;28;20045;-84
2023/10/25 04:28:33;;;;;;;28.20;12.65;;;8.80;99.90;;;;;;5072543;28;20059;-85
2023/10/25 04:31:00;;;;;;;22.48;12.13;;;8.80;99.90;;;;;;5072736;28;20093;-85
2023/10/25 04:33:26;;;;;;;26.90;12.88;;;8.70;99.90;;;;;;5072721;28;20075;-85
2023/10/25 04:35:52;;;;;;;23.52;13.95;;;8.70;99.90;;;;;;5072450;28;20052;-86
2023/10/25 04:38:17;;;;;;;24.33;13.38;;;8.60;99.90;;;;;;5072526;28;20040;-85
2023/10/25 04:40:43;;;;;;;24.33;13.90;;;8.60;99.90;;;;;;5072752;28;20064;-84
2023/10/25 04:43:08;;;;;;;24.67;14.57;;;8.60;99.90;;;;;;5073616;28;20032;-84
2023/10/25 04:45:35;;;;;;;25.92;14.82;;;8.60;99.90;;;;;;5072162;28;20040;-84
2023/10/25 04:48:00;;;;;;;29.50;13.98;;;8.60;99.90;;;;;;5073714;28;20045;-85
2023/10/25 04:50:26;;;;;;;24.17;13.80;;;8.50;99.90;;;;;;5072105;28;20085;-84
2023/10/25 04:52:52;;;;;;;28.60;14.23;;;8.50;99.90;;;;;;5072011;28;20056;-85
2023/10/25 04:55:18;;;;;;;23.40;13.30;;;8.50;99.90;;;;;;5072326;28;20052;-85
2023/10/25 04:57:43;;;;;;;26.25;13.95;;;8.50;99.90;;;;;;5072469;28;20041;-85
2023/10/25 05:00:09;;;;;;;25.33;14.13;;;8.50;99.90;;;;;;5072003;28;20063;-84
2023/10/25 05:02:38;;;;;;;24.38;14.00;;;8.50;99.90;;;;;;5072148;28;20052;-86
2023/10/25 05:05:08;;;;;;;25.13;14.60;;;8.40;99.90;;;;;;5071979;28;20078;-85
2023/10/25 05:07:35;;;;;;;26.63;14.85;;;8.40;99.90;;;;;;5072197;28;20128;-85
2023/10/25 05:10:01;;;;;;;26.83;15.18;;;8.30;99.90;;;;;;5072140;28;20048;-85
2023/10/25 05:12:38;;;;;;;27.33;15.65;;;8.30;99.90;;;;;;5072000;28;20043;-85
2023/10/25 05:15:06;;;;;;;29.98;16.27;;;8.30;99.90;;;;;;5072296;28;20062;-85
2023/10/25 05:17:32;;;;;;;28.20;16.25;;;8.30;99.90;;;;;;5072466;28;20079;-84
2023/10/25 05:19:57;;;;;;;30.30;16.63;;;8.20;99.90;;;;;;5072078;28;20082;-85
2023/10/25 05:22:26;;;;;;;31.85;16.92;;;8.30;99.90;;;;;;5072226;28;20040;-84
2023/10/25 05:24:52;;;;;;;30.67;16.08;;;8.30;99.90;;;;;;5072068;28;20044;-84
2023/10/25 05:27:18;;;;;;;33.33;18.00;;;8.20;99.90;;;;;;5071800;28;20057;-84
2023/10/25 05:29:44;;;;;;;36.72;17.58;;;8.30;99.90;;;;;;5071996;28;20368;-84
2023/10/25 05:32:17;;;;;;;34.30;17.50;;;8.20;99.90;;;;;;5072108;28;20438;-84
2023/10/25 05:34:43;;;;;;;31.85;17.00;;;8.30;99.90;;;;;;5073894;28;20049;-84
2023/10/25 05:37:09;;;;;;;30.15;17.15;;;8.20;99.90;;;;;;5071919;28;20484;-84
2023/10/25 05:39:35;;;;;;;30.95;17.23;;;8.20;99.90;;;;;;5074049;28;20059;-84
2023/10/25 05:42:04;;;;;;;29.92;16.35;;;8.20;99.90;;;;;;5075953;28;20040;-84
2023/10/25 05:44:30;;;;;;;33.15;17.35;;;8.20;99.90;;;;;;5075579;28;20052;-85
2023/10/25 05:46:56;;;;;;;31.52;18.05;;;8.20;99.90;;;;;;5076815;28;20406;-86
2023/10/25 05:49:22;;;;;;;26.23;15.80;;;8.20;99.90;;;;;;5075458;28;20475;-86
2023/10/25 05:51:48;;;;;;;31.25;16.70;;;8.20;99.90;;;;;;5075248;28;20573;-85
2023/10/25 05:54:14;;;;;;;30.60;16.52;;;8.20;99.90;;;;;;5075240;28;20056;-85
2023/10/25 05:56:40;;;;;;;26.60;17.55;;;8.20;99.90;;;;;;5075295;28;20039;-83
2023/10/25 05:59:06;;;;;;;30.13;17.23;;;8.20;99.90;;;;;;5075295;28;20040;-83
2023/10/25 06:01:50;;;;;;;31.02;17.00;;;8.10;99.90;;;;;;5068259;28;20047;-82
2023/10/25 06:04:18;;;;;;;28.52;16.73;;;8.10;99.90;;;;;;5058070;28;20119;-83
2023/10/25 06:06:45;;;;;;;34.75;17.92;;;8.10;99.90;;;;;;5056218;28;20423;-83
2023/10/25 06:09:11;;;;;;;31.88;18.30;;;8.10;99.90;;;;;;5054803;28;20128;-83
2023/10/25 06:11:38;;;;;;;31.60;18.20;;;8.10;99.90;;;;;;5055993;28;20049;-82
2023/10/25 06:14:07;;;;;;;33.00;17.10;;;8.10;99.90;;;;;;5054965;28;20535;-83
2023/10/25 06:16:33;;;;;;;29.30;17.67;;;8.00;99.90;;;;;;5055819;28;20503;-85
2023/10/25 06:19:00;;;;;;;31.67;15.55;;;8.10;99.90;;;;;;5054711;28;20052;-86
2023/10/25 06:21:26;;;;;;;28.73;17.00;;;8.00;99.90;;;;;;5060424;28;20133;-81
2023/10/25 06:23:51;;;;;;;31.33;19.30;;;8.10;99.90;;;;;;5074215;28;20080;-82
2023/10/25 06:26:18;;;;;;;28.08;17.33;;;8.00;99.90;;;;;;5074639;28;20506;-83
2023/10/25 06:28:44;;;;;;;27.02;15.07;;;8.10;99.90;;;;;;5108525;28;20048;-83
2023/10/25 06:31:11;;;;;;;29.38;15.95;;;8.10;99.90;;;;;;5108207;28;20036;-80
2023/10/25 06:33:37;;;;;;;25.42;15.25;;;8.00;99.90;;;;;;5075468;28;20056;-82
2023/10/25 06:36:03;;;;;;;35.42;16.13;;;8.00;99.90;;;;;;5074600;28;20055;-82
2023/10/25 06:38:29;;;;;;;29.02;16.00;;;7.90;99.90;;;;;;5073987;28;20045;-82
2023/10/25 06:40:55;;;;;;;28.60;14.70;;;8.00;99.90;;;;;;5075444;28;20059;-81
2023/10/25 06:43:21;;;;;;;28.55;14.75;;;8.00;99.90;;;;;;5074135;28;20040;-80
2023/10/25 06:45:47;;;;;;;28.75;16.27;;;8.00;99.90;;;;;;5108171;28;20036;-80
2023/10/25 06:48:13;;;;;;;28.10;15.57;;;8.00;99.90;;;;;;5074322;28;20510;-80
2023/10/25 06:50:39;;;;;;;27.15;14.75;;;8.00;99.90;;;;;;5073777;28;20139;-80
2023/10/25 06:53:05;;;;;;;26.08;15.15;;;8.10;99.90;;;;;;5074999;28;20048;-80
2023/10/25 06:55:31;;;;;;;26.23;13.73;;;8.10;99.90;;;;;;5073906;28;20404;-82
2023/10/25 06:57:57;;;;;;;24.10;14.43;;;8.10;99.90;;;;;;5073738;28;20044;-82
2023/10/25 07:00:23;;;;;;;32.72;15.30;;;8.10;99.90;;;;;;5074051;28;20053;-81
2023/10/25 07:02:53;;;;;;;27.58;14.15;;;8.10;99.90;;;;;;5074971;28;20830;-82
2023/10/25 07:05:26;;;;;;;22.23;13.63;;;8.20;99.90;;;;;;5107974;28;20059;-80
2023/10/25 07:07:52;;;;;;;;;;;8.20;99.90;;;;;;5074120;28;20046;-80
2023/10/25 07:10:18;;;;;;;25.00;13.40;;;8.20;99.90;;;;;;5107446;28;19920;-80
2023/10/25 07:12:45;;;;;;;20.88;11.98;;;8.20;99.90;;;;;;5107599;28;20080;-80
2023/10/25 07:15:11;;;;;;;24.75;13.10;;;8.10;99.90;;;;;;5073641;28;20187;-80
2023/10/25 07:17:38;;;;;;;22.55;12.45;;;8.20;99.90;;;;;;5073829;28;20139;-81
2023/10/25 07:20:07;;;;;;;20.90;13.45;;;8.10;99.90;;;;;;5073521;28;20041;-81
2023/10/25 07:22:33;;;;;;;24.48;12.65;;;8.20;99.90;;;;;;5074921;28;20040;-81
2023/10/25 07:24:59;;;;;;;22.90;12.20;;;8.20;99.90;;;;;;5073251;28;20059;-82
2023/10/25 07:27:25;;;;;;;25.45;12.60;;;8.20;99.90;;;;;;5074578;28;20047;-82
2023/10/25 07:29:50;;;;;;;25.15;12.18;;;8.30;99.90;;;;;;5073377;28;20052;-82
2023/10/25 07:32:16;;;;;;;22.90;12.73;;;8.20;99.90;;;;;;5074787;28;20479;-82
2023/10/25 07:34:42;;;;;;;23.17;12.07;;;8.30;99.90;;;;;;5073538;28;20118;-82
2023/10/25 07:37:08;;;;;;;24.90;12.45;;;8.40;99.90;;;;;;5072927;28;20083;-82
2023/10/25 07:39:34;;;;;;;25.15;12.18;;;8.50;99.90;;;;;;5073201;28;20040;-82
2023/10/25 07:42:01;;;;;;;22.58;11.63;;;8.40;99.90;;;;;;5073131;28;20061;-80
2023/10/25 07:44:27;;;;;;;20.92;11.75;;;8.50;99.90;;;;;;5106771;28;20080;-80
2023/10/25 07:46:53;;;;;;;18.70;10.93;;;8.50;99.90;;;;;;5072953;28;20094;-81
2023/10/25 07:49:18;;;;;;;22.27;11.73;;;8.50;99.90;;;;;;5072885;28;20135;-81
2023/10/25 07:51:44;;;;;;;31.60;13.63;;;8.50;99.90;;;;;;5072778;28;20049;-81
2023/10/25 07:54:09;;;;;;;22.00;12.35;;;8.50;99.90;;;;;;5073981;28;20048;-82
2023/10/25 07:56:35;;;;;;;23.92;12.32;;;8.60;99.90;;;;;;5073115;28;20131;-82
2023/10/25 07:59:01;;;;;;;22.10;12.07;;;8.60;99.90;;;;;;5129020;22;20057;-80
2023/10/25 08:01:27;;;;;;;22.17;11.35;;;8.60;99.90;;;;;;5072075;28;20052;-81
2023/10/25 08:03:53;;;;;;;21.80;12.18;;;8.70;99.90;;;;;;5073915;28;20135;-82
2023/10/25 08:06:19;;;;;;;17.80;11.63;;;8.80;99.90;;;;;;5073694;28;20044;-79
2023/10/25 08:08:45;;;;;;;26.95;11.45;;;8.80;99.90;;;;;;5072658;28;20098;-81
2023/10/25 08:11:13;;;;;;;24.55;11.68;;;8.90;99.90;;;;;;5072542;28;20518;-81
2023/10/25 08:13:40;;;;;;;19.30;10.93;;;8.90;99.90;;;;;;5072456;28;20056;-82
2023/10/25 08:16:06;;;;;;;22.75;12.20;;;9.00;99.90;;;;;;5073874;28;20052;-80
2023/10/25 08:18:32;;;;;;;20.73;10.88;;;9.00;99.90;;;;;;5073670;28;20036;-81
2023/10/25 08:20:58;;;;;;;18.50;11.32;;;9.00;99.90;;;;;;5073579;28;20050;-82
2023/10/25 08:23:24;;;;;;;21.27;11.10;;;9.00;99.90;;;;;;5072225;28;20032;-80
2023/10/25 08:25:53;;;;;;;21.33;11.65;;;9.00;99.90;;;;;;5072085;28;20102;-81
2023/10/25 08:28:19;;;;;;;21.17;11.82;;;9.00;99.90;;;;;;5072281;28;20056;-83
2023/10/25 08:30:45;;;;;;;19.35;11.90;;;8.90;99.90;;;;;;5072086;28;20044;-84
2023/10/25 08:33:10;;;;;;;17.58;11.70;;;8.80;99.90;;;;;;5073743;28;20041;-82
2023/10/25 08:35:39;;;;;;;20.45;12.35;;;8.90;99.90;;;;;;5072402;28;20424;-80
2023/10/25 08:38:05;;;;;;;21.33;11.80;;;8.80;99.90;;;;;;5072234;28;20094;-80
2023/10/25 08:40:34;;;;;;;24.25;11.50;;;8.80;99.90;;;;;;5072041;28;20049;-85
2023/10/25 08:42:59;;;;;;;19.60;11.45;;;8.80;99.90;;;;;;5073586;28;20048;-83
2023/10/25 08:45:26;;;;;;;20.33;10.45;;;8.80;99.90;;;;;;5072283;28;20052;-83
2023/10/25 08:47:52;;;;;;;21.67;12.43;;;8.90;99.90;;;;;;5055197;28;20491;-82
2023/10/25 08:50:20;;;;;;;20.23;11.65;;;8.80;99.90;;;;;;5072203;28;20068;-85
2023/10/25 08:52:49;;;;;;;26.65;14.05;;;8.80;99.90;;;;;;5073151;28;20087;-82
2023/10/25 08:55:17;;;;;;;21.80;11.93;;;8.80;99.90;;;;;;5055435;28;20545;-82
2023/10/25 08:57:45;;;;;;;25.05;14.20;;;8.80;99.90;;;;;;5054843;28;20063;-82
2023/10/25 09:00:12;;;;;;;19.92;11.45;;;8.80;99.90;;;;;;5055049;28;20412;-82
2023/10/25 09:02:39;;;;;;;23.65;12.88;;;8.80;99.90;;;;;;5055133;28;20043;-81
2023/10/25 09:05:08;;;;;;;20.42;11.90;;;8.90;99.90;;;;;;5055087;28;20051;-84
2023/10/25 09:07:38;;;;;;;18.83;11.73;;;8.90;99.90;;;;;;5054870;28;20454;-79
2023/10/25 09:10:22;;;;;;;22.02;11.70;;;8.90;99.90;;;;;;5054939;28;20055;-82
2023/10/25 09:12:48;;;;;;;19.92;12.50;;;9.00;99.90;;;;;;5055281;28;20044;-82
2023/10/25 09:15:14;;;;;;;22.90;12.73;;;8.90;99.90;;;;;;5058147;28;20471;-81
2023/10/25 09:17:39;;;;;;;22.38;12.50;;;9.00;99.90;;;;;;5059251;28;20052;-81
2023/10/25 09:20:08;;;;;;;22.17;11.02;;;9.10;99.90;;;;;;5059024;28;20040;-80
2023/10/25 09:22:34;;;;;;;18.67;10.18;;;9.10;99.90;;;;;;5077170;28;20047;-82
2023/10/25 09:25:02;;;;;;;23.75;12.15;;;9.10;99.90;;;;;;5058985;28;20049;-77
2023/10/25 09:27:29;;;;;;;17.77;10.70;;;9.10;99.90;;;;;;5077134;28;20095;-78
2023/10/25 09:30:11;;;;;;;17.65;10.98;;;9.10;99.90;;;;;;5076994;28;20037;-81
2023/10/25 09:32:37;;;;;;;15.75;10.05;;;9.20;99.90;;;;;;5059156;28;20087;-85
2023/10/25 09:35:04;;;;;;;20.65;10.52;;;9.20;99.90;;;;;;5059116;28;20076;-80
2023/10/25 09:37:29;;;;;;;17.52;10.85;;;9.20;99.90;;;;;;5058641;28;20075;-78
2023/10/25 09:39:55;;;;;;;17.48;10.77;;;9.20;99.90;;;;;;5058969;28;20084;-79
2023/10/25 09:42:26;;;;;;;18.08;10.82;;;9.30;99.90;;;;;;5058976;28;20384;-80
2023/10/25 09:45:01;;;;;;;17.25;10.50;;;9.30;99.90;;;;;;5076424;28;20488;-80
2023/10/25 09:47:32;;;;;;;21.35;11.13;;;9.30;99.90;;;;;;5076428;28;20114;-79
2023/10/25 09:50:14;;;;;;;17.10;10.32;;;9.30;99.90;;;;;;5058826;28;20049;-79
2023/10/25 09:52:41;;;;;;;21.42;11.50;;;9.40;99.90;;;;;;5076394;28;20133;-79
2023/10/25 09:55:25;;;;;;;21.40;9.23;;;9.40;99.90;;;;;;5058413;28;20432;-81
2023/10/25 09:57:53;;;;;;;26.35;10.57;;;9.40;99.90;;;;;;5058214;28;20054;-79
2023/10/25 10:00:20;;;;;;;17.60;9.13;;;9.50;99.90;;;;;;5076083;28;20555;-79
2023/10/25 10:02:48;;;;;;;20.70;10.63;;;9.50;99.90;;;;;;5058214;28;20049;-80
2023/10/25 10:05:24;;;;;;;18.33;11.25;;;9.50;99.90;;;;;;5058350;28;20044;-79
2023/10/25 10:08:05;;;;;;;19.63;10.52;;;9.60;99.90;;;;;;5058102;28;20052;-79
2023/10/25 10:10:44;;;;;;;16.75;9.68;;;9.60;99.90;;;;;;5075977;28;20102;-78
2023/10/25 10:13:20;;;;;;;17.70;9.63;;;9.70;99.90;;;;;;5058113;28;20124;-79
2023/10/25 10:16:04;;;;;;;16.90;10.00;;;9.80;99.90;;;;;;5058226;28;20131;-79
2023/10/25 10:18:44;;;;;;;16.15;9.18;;;9.80;99.90;;;;;;5058045;28;20475;-78
2023/10/25 10:21:10;;;;;;;15.15;9.50;;;9.90;99.90;;;;;;5057952;28;20044;-77
2023/10/25 10:23:49;;;;;;;17.85;9.95;;;9.90;99.90;;;;;;5057903;28;20122;-80
2023/10/25 10:26:44;;;;;;;18.85;10.57;;;9.90;99.90;;;;;;5057129;28;20051;-79
2023/10/25 10:29:31;;;;;;;16.00;9.05;;;9.90;99.90;;;;;;5085522;28;20507;-78
2023/10/25 10:32:04;;;;;;;16.65;9.07;;;10.00;99.90;;;;;;5095954;28;20036;-78
2023/10/25 10:34:45;;;;;;;;;;;10.00;99.90;;;;;;5078154;28;20055;-77
2023/10/25 10:37:21;;;;;;;16.33;9.57;;;10.10;99.90;;;;;;5077972;28;19977;-78
2023/10/25 10:39:56;;;;;;;16.35;10.93;;;10.10;99.90;;;;;;5095695;28;20108;-78
2023/10/25 10:42:32;;;;;;;14.07;8.82;;;10.20;99.90;;;;;;5095864;28;20044;-79
2023/10/25 10:44:59;;;;;;;14.90;9.73;;;10.20;99.90;;;;;;5086581;28;20124;-78
2023/10/25 10:47:47;;;;;;;16.98;9.75;;;10.30;99.90;;;;;;5074786;28;20046;-79
2023/10/25 10:50:18;;;;;;;17.67;9.82;;;10.30;99.90;;;;;;5077408;28;20036;-79
2023/10/25 10:52:46;;;;;;;13.57;8.90;;;10.30;99.90;;;;;;5077272;28;20449;-78
2023/10/25 10:55:14;;;;;;;14.50;9.35;;;10.40;99.90;;;;;;5077499;28;20127;-76
2023/10/25 10:57:42;;;;;;;18.33;9.75;;;10.40;99.90;;;;;;5077006;28;20066;-76
2023/10/25 11:00:10;;;;;;;19.85;9.85;;;10.50;99.90;;;;;;5077176;28;20679;-76
2023/10/25 11:02:44;;;;;;;18.70;10.73;;;10.60;99.90;;;;;;5077448;28;20036;-77
2023/10/25 11:05:09;;;;;;;14.98;8.57;;;10.60;99.90;;;;;;5077670;28;20387;-76
2023/10/25 11:07:35;;;;;;;15.70;9.23;;;10.60;99.90;;;;;;5077003;28;20044;-76
2023/10/25 11:10:01;;;;;;;18.58;10.88;;;10.60;99.90;;;;;;5077060;28;20048;-76
2023/10/25 11:12:26;;;;;;;14.73;9.43;;;10.70;99.90;;;;;;5076931;28;20052;-77
2023/10/25 11:14:53;;;;;;;19.80;9.93;;;10.80;99.90;;;;;;5094976;28;20039;-76
2023/10/25 11:17:19;;;;;;;15.02;9.35;;;10.80;99.90;;;;;;5076722;28;20040;-79
2023/10/25 11:19:46;;;;;;;18.48;9.90;;;10.80;99.90;;;;;;5076874;28;20087;-79
2023/10/25 11:22:13;;;;;;;19.13;10.80;;;10.80;99.90;;;;;;5095031;28;20032;-78
2023/10/25 11:24:38;;;;;;;18.05;10.48;;;10.80;99.90;;;;;;5077017;28;20048;-79
2023/10/25 11:27:04;;;;;;;16.95;9.77;;;10.90;99.90;;;;;;5076327;28;20048;-79
2023/10/25 11:29:34;;;;;;;14.25;8.65;;;10.90;99.90;;;;;;5076539;28;20047;-78
2023/10/25 11:32:06;;;;;;;14.40;9.02;;;10.90;99.90;;;;;;5076450;28;20118;-78
2023/10/25 11:34:33;;;;;;;17.95;9.90;;;11.00;99.90;;;;;;5095021;28;20036;-77
2023/10/25 11:37:02;;;;;;;14.27;8.77;;;11.00;99.90;;;;;;5075945;28;20048;-78
2023/10/25 11:39:32;;;;;;;17.63;9.30;;;11.00;99.90;;;;;;5076454;28;20541;-77
2023/10/25 11:41:59;;;;;;;14.18;9.52;;;11.10;99.90;;;;;;5094441;28;20498;-76
2023/10/25 11:44:27;;;;;;;12.07;7.72;;;11.10;99.90;;;;;;5076575;28;20460;-77
2023/10/25 11:46:55;;;;;;;30.88;19.85;;;11.10;99.90;;;;;;5076357;28;20549;-77
2023/10/25 11:49:21;;;;;;;18.00;12.55;;;11.20;99.90;;;;;;5076532;28;20109;-77
2023/10/25 11:51:48;;;;;;;19.65;13.63;;;11.20;99.90;;;;;;5076434;28;20487;-80
2023/10/25 11:54:13;;;;;;;20.13;12.82;;;11.20;99.90;;;;;;5076315;28;20043;-77
2023/10/25 11:56:40;;;;;;;17.98;9.98;;;11.30;99.90;;;;;;5076288;28;20517;-77
2023/10/25 11:59:12;;;;;;;16.52;8.75;;;11.20;99.90;;;;;;5075775;28;20060;-77
2023/10/25 12:01:38;;;;;;;20.20;10.98;;;11.30;99.90;;;;;;5076291;28;20127;-77
2023/10/25 12:04:04;;;;;;;20.30;11.10;;;11.30;99.90;;;;;;5076184;28;20462;-78
2023/10/25 12:06:29;;;;;;;13.75;7.85;;;11.30;99.90;;;;;;5075568;28;20050;-79
2023/10/25 12:08:55;;;;;;;14.05;7.38;;;11.30;99.90;;;;;;5075811;28;20070;-79
2023/10/25 12:11:21;;;;;;;15.18;8.65;;;11.30;99.90;;;;;;5075848;28;20490;-79
2023/10/25 12:13:46;;;;;;;18.25;8.30;;;11.40;99.90;;;;;;5076077;28;20086;-79
2023/10/25 12:16:12;;;;;;;18.05;10.05;;;11.40;99.90;;;;;;5076055;28;20372;-78
2023/10/25 12:18:37;;;;;;;23.73;12.23;;;11.40;99.90;;;;;;5075590;28;20510;-78
2023/10/25 12:21:04;;;;;;;20.73;11.85;;;11.40;99.90;;;;;;5094022;28;20044;-78
2023/10/25 12:23:30;;;;;;;16.85;9.10;;;11.40;99.90;;;;;;5075822;28;20035;-79
2023/10/25 12:25:56;;;;;;;18.73;13.50;;;11.40;99.90;;;;;;5075846;28;20487;-78
2023/10/25 12:28:23;;;;;;;19.58;12.95;;;11.50;99.90;;;;;;5075850;28;20036;-78
2023/10/25 12:30:49;;;;;;;16.15;10.77;;;11.50;99.90;;;;;;5075542;28;20040;-78
2023/10/25 12:33:14;;;;;;;15.50;10.82;;;11.50;99.90;;;;;;5075789;28;20059;-79
2023/10/25 12:35:41;;;;;;;17.20;11.25;;;11.50;99.90;;;;;;5075681;28;20126;-78
2023/10/25 12:38:07;;;;;;;14.73;10.40;;;11.50;99.90;;;;;;5075178;28;20048;-78
2023/10/25 12:40:32;;;;;;;16.50;10.10;;;11.60;99.90;;;;;;5075748;28;20226;-78
2023/10/25 12:42:58;;;;;;;20.17;12.27;;;11.60;99.90;;;;;;5075548;28;20376;-78